createdAt,value
2022-10-05T00:00:56.253Z,11.97
2022-10-05T00:03:27.918Z,11.92
2022-10-05T00:05:55.503Z,12.03
2022-10-05T00:08:25.829Z,11.94
2022-10-05T00:10:53.703Z,11.91
2022-10-05T00:13:25.871Z,11.79
2022-10-05T00:16:12.252Z,11.76
2022-10-05T00:18:41.370Z,11.92
2022-10-05T00:21:35.188Z,11.87
2022-10-05T00:24:02.878Z,11.72
2022-10-05T00:26:34.230Z,11.74
2022-10-05T00:29:07.062Z,11.58
2022-10-05T00:31:37.122Z,11.46
2022-10-05T00:34:04.890Z,11.26
2022-10-05T00:36:32.582Z,11.19
2022-10-05T00:39:02.997Z,10.98
2022-10-05T00:41:59.434Z,11.10
2022-10-05T00:44:41.387Z,10.98
2022-10-05T00:47:11.637Z,11.00
2022-10-05T00:50:14.613Z,11.07
2022-10-05T00:53:09.436Z,11.25
2022-10-05T00:56:02.453Z,11.29
2022-10-05T00:58:54.283Z,11.26
2022-10-05T01:01:43.967Z,11.43
2022-10-05T01:04:54.249Z,11.54
2022-10-05T01:07:48.378Z,11.54
2022-10-05T01:10:40.287Z,11.42
2022-10-05T01:13:22.751Z,11.51
2022-10-05T01:16:04.415Z,11.58
2022-10-05T01:18:45.008Z,11.65
2022-10-05T01:21:21.465Z,11.66
2022-10-05T01:24:29.338Z,11.62
2022-10-05T01:27:24.213Z,11.52
2022-10-05T01:30:02.909Z,11.47
2022-10-05T01:32:45.331Z,11.50
2022-10-05T01:35:40.778Z,11.52
2022-10-05T01:38:35.639Z,11.48
2022-10-05T01:41:36.701Z,11.37
2022-10-05T01:45:09.350Z,11.44
2022-10-05T01:47:54.707Z,11.64
2022-10-05T01:50:50.098Z,11.48
2022-10-05T01:53:33.619Z,11.44
2022-10-05T01:56:13.264Z,11.23
2022-10-05T01:59:31.403Z,11.20
2022-10-05T02:02:21.543Z,11.06
2022-10-05T02:05:03.012Z,11.13
2022-10-05T02:07:45.941Z,11.00
2022-10-05T02:10:26.165Z,11.05
2022-10-05T02:13:05.051Z,11.13
2022-10-05T02:15:49.409Z,11.02
2022-10-05T02:18:24.132Z,11.11
2022-10-05T02:20:56.359Z,11.09
2022-10-05T02:23:33.013Z,10.99
2022-10-05T02:26:02.594Z,10.94
2022-10-05T02:29:00.369Z,11.03
2022-10-05T02:31:46.022Z,11.09
2022-10-05T02:34:41.592Z,11.05
2022-10-05T02:37:36.972Z,11.06
2022-10-05T02:40:19.620Z,11.03
2022-10-05T02:43:00.039Z,11.02
2022-10-05T02:45:47.231Z,11.43
2022-10-05T02:48:42.119Z,10.88
2022-10-05T02:51:29.210Z,10.53
2022-10-05T02:54:25.522Z,10.23
2022-10-05T02:57:09.796Z,10.04
2022-10-05T03:00:04.655Z,10.27
2022-10-05T03:03:07.223Z,10.23
2022-10-05T03:05:44.277Z,10.26
2022-10-05T03:08:25.641Z,9.94
2022-10-05T03:11:03.210Z,9.65
2022-10-05T03:13:57.377Z,9.79
2022-10-05T03:16:56.295Z,9.94
2022-10-05T03:19:44.957Z,9.94
2022-10-05T03:22:44.387Z,9.88
2022-10-05T03:25:26.991Z,9.75
2022-10-05T03:28:27.267Z,9.67
2022-10-05T03:31:09.902Z,9.53
2022-10-05T03:34:00.855Z,9.51
2022-10-05T03:37:10.326Z,9.50
2022-10-05T03:39:47.339Z,9.75
2022-10-05T03:42:37.698Z,9.71
2022-10-05T03:45:58.106Z,9.33
2022-10-05T03:48:47.834Z,9.30
2022-10-05T03:51:38.547Z,9.32
2022-10-05T03:54:29.302Z,9.25
2022-10-05T03:57:28.497Z,8.95
2022-10-05T04:00:16.577Z,9.03
2022-10-05T04:03:13.196Z,8.93
2022-10-05T04:05:54.313Z,8.89
2022-10-05T04:09:14.288Z,8.67
2022-10-05T04:12:25.535Z,8.65
2022-10-05T04:15:03.825Z,8.80
2022-10-05T04:17:45.247Z,8.67
2022-10-05T04:20:18.728Z,8.59
2022-10-05T04:23:25.407Z,8.60
2022-10-05T04:26:06.324Z,8.55
2022-10-05T04:29:00.844Z,8.64
2022-10-05T04:32:22.818Z,8.76
2022-10-05T04:35:27.134Z,8.87
2022-10-05T04:38:03.697Z,8.80
2022-10-05T04:41:02.937Z,8.91
2022-10-05T04:44:22.867Z,9.01
2022-10-05T04:47:03.499Z,9.15
2022-10-05T04:50:07.182Z,9.12
2022-10-05T04:52:59.119Z,9.21
2022-10-05T04:56:10.839Z,9.24
2022-10-05T04:58:45.957Z,9.37
2022-10-05T05:01:40.092Z,9.58
2022-10-05T05:04:45.408Z,9.62
2022-10-05T05:07:44.609Z,9.70
2022-10-05T05:11:16.228Z,9.80
2022-10-05T05:14:07.575Z,9.96
2022-10-05T05:16:44.418Z,10.07
2022-10-05T05:19:41.498Z,10.22
2022-10-05T05:22:50.470Z,10.42
2022-10-05T05:25:42.689Z,10.57
2022-10-05T05:28:34.771Z,10.86
2022-10-05T05:31:45.981Z,10.64
2022-10-05T05:34:58.026Z,10.64
2022-10-05T05:37:36.750Z,10.87
2022-10-05T05:40:17.629Z,10.85
2022-10-05T05:42:59.098Z,11.08
2022-10-05T05:45:43.748Z,11.25
2022-10-05T05:48:39.066Z,11.38
2022-10-05T05:51:15.443Z,11.55
2022-10-05T05:54:05.392Z,11.54
2022-10-05T05:56:41.627Z,11.63
2022-10-05T05:59:32.716Z,11.74
2022-10-05T06:02:12.191Z,11.93
2022-10-05T06:04:52.509Z,12.01
2022-10-05T06:07:30.357Z,12.12
2022-10-05T06:10:22.405Z,12.19
2022-10-05T06:13:09.309Z,12.28
2022-10-05T06:15:47.549Z,12.47
2022-10-05T06:18:20.705Z,12.63
2022-10-05T06:21:03.133Z,12.65
2022-10-05T06:23:54.919Z,12.81
2022-10-05T06:26:32.112Z,13.03
2022-10-05T06:29:08.879Z,13.13
2022-10-05T06:32:24.845Z,13.47
2022-10-05T06:35:12.500Z,13.64
2022-10-05T06:38:01.358Z,13.96
2022-10-05T06:40:55.593Z,14.09
2022-10-05T06:43:31.935Z,14.34
2022-10-05T06:46:31.369Z,14.00
2022-10-05T06:49:34.425Z,14.37
2022-10-05T06:53:11.116Z,14.63
2022-10-05T06:56:13.908Z,14.61
2022-10-05T06:59:06.415Z,14.92
2022-10-05T07:01:52.174Z,15.41
2022-10-05T07:04:59.781Z,15.15
2022-10-05T07:07:43.755Z,15.17
2022-10-05T07:10:20.814Z,15.62
2022-10-05T07:13:34.373Z,15.90
2022-10-05T07:21:18.165Z,16.05
2022-10-05T07:24:29.334Z,16.16
2022-10-05T07:27:18.223Z,16.34
2022-10-05T07:30:11.543Z,16.31
2022-10-05T07:33:21.082Z,16.44
2022-10-05T07:36:42.224Z,16.76
2022-10-05T07:39:59.024Z,17.69
2022-10-05T07:43:57.573Z,17.68
2022-10-05T07:47:13.387Z,17.52
2022-10-05T08:13:56.366Z,19.06
2022-10-05T08:16:31.239Z,19.03
2022-10-05T08:19:02.448Z,19.86
2022-10-05T08:22:06.628Z,19.59
2022-10-05T08:24:48.658Z,19.22
2022-10-05T08:27:33.999Z,19.25
2022-10-05T08:30:17.066Z,19.08
2022-10-05T08:33:18.711Z,19.23
2022-10-05T08:36:20.412Z,19.72
2022-10-05T08:39:17.334Z,20.12
2022-10-05T08:42:09.374Z,20.47
2022-10-05T08:45:14.059Z,20.37
2022-10-05T08:48:06.453Z,20.51
2022-10-05T08:51:00.553Z,20.21
2022-10-05T08:53:55.335Z,20.39
2022-10-05T08:57:13.876Z,20.96
2022-10-05T08:59:57.159Z,21.19
2022-10-05T09:02:47.387Z,21.34
2022-10-05T09:05:41.812Z,21.46
2022-10-05T09:08:51.386Z,21.29
2022-10-05T09:11:41.908Z,21.18
2022-10-05T09:14:25.365Z,21.03
2022-10-05T09:17:04.803Z,20.83
2022-10-05T09:19:47.564Z,21.19
2022-10-05T09:22:40.336Z,21.74
2022-10-05T09:25:39.054Z,21.94
2022-10-05T09:28:43.314Z,22.39
2022-10-05T09:31:44.976Z,22.60
2022-10-05T09:34:43.296Z,22.38
2022-10-05T09:38:10.844Z,22.68
2022-10-05T09:41:20.003Z,22.41
2022-10-05T09:44:12.107Z,22.39
2022-10-05T09:46:54.252Z,22.63
2022-10-05T09:49:39.617Z,22.93
2022-10-05T09:52:28.522Z,23.39
2022-10-05T09:55:46.147Z,23.77
2022-10-05T09:59:38.017Z,23.46
2022-10-05T10:02:27.773Z,23.24
2022-10-05T10:05:40.900Z,23.28
2022-10-05T10:08:35.457Z,22.80
2022-10-05T10:11:41.215Z,22.95
2022-10-05T10:15:09.466Z,23.29
2022-10-05T10:18:15.998Z,23.54
2022-10-05T10:20:45.971Z,23.84
2022-10-05T10:23:28.978Z,23.74
2022-10-05T10:26:36.302Z,23.81
2022-10-05T10:29:57.226Z,24.32
2022-10-05T10:32:52.403Z,24.68
2022-10-05T10:36:06.143Z,24.89
2022-10-05T10:38:58.543Z,25.40
2022-10-05T10:41:52.155Z,25.36
2022-10-05T10:44:40.986Z,25.45
2022-10-05T10:47:54.579Z,25.69
2022-10-05T10:50:50.766Z,25.40
2022-10-05T10:53:36.304Z,25.34
2022-10-05T10:56:36.088Z,25.21
2022-10-05T10:59:48.476Z,25.56
2022-10-05T11:02:39.935Z,25.70
2022-10-05T11:05:52.248Z,25.43
2022-10-05T11:08:58.835Z,25.21
2022-10-05T11:11:54.573Z,24.91
2022-10-05T11:14:46.398Z,25.12
2022-10-05T11:18:02.454Z,25.64
2022-10-05T11:21:09.970Z,26.15
2022-10-05T11:23:58.857Z,26.08
2022-10-05T11:26:41.247Z,26.60
2022-10-05T11:29:52.115Z,26.52
2022-10-05T11:33:11.299Z,25.84
2022-10-05T11:36:30.789Z,26.00
2022-10-05T11:39:22.514Z,26.20
2022-10-05T11:42:20.143Z,25.81
2022-10-05T11:45:08.707Z,25.93
2022-10-05T11:48:22.519Z,25.96
2022-10-05T11:51:28.862Z,26.40
2022-10-05T11:54:02.452Z,26.87
2022-10-05T11:56:36.717Z,26.65
2022-10-05T11:59:43.006Z,26.39
2022-10-05T12:02:28.178Z,26.29
2022-10-05T12:05:21.296Z,26.53
2022-10-05T12:08:03.653Z,27.03
2022-10-05T12:11:01.229Z,26.52
2022-10-05T12:13:55.418Z,26.90
2022-10-05T12:16:43.906Z,27.32
2022-10-05T12:19:59.944Z,28.08
2022-10-05T12:23:05.552Z,28.22
2022-10-05T12:26:14.885Z,28.13
2022-10-05T12:29:11.440Z,27.95
2022-10-05T12:32:12.870Z,28.23
2022-10-05T12:35:06.232Z,28.49
2022-10-05T12:38:02.877Z,28.41
2022-10-05T12:40:53.536Z,27.82
2022-10-05T12:44:07.060Z,27.99
2022-10-05T12:47:12.772Z,27.93
2022-10-05T12:49:58.824Z,28.48
2022-10-05T12:52:51.041Z,29.05
2022-10-05T12:55:54.036Z,29.19
2022-10-05T12:59:09.847Z,29.42
2022-10-05T13:02:08.255Z,29.65
2022-10-05T13:04:41.179Z,29.42
2022-10-05T13:07:40.453Z,30.15
2022-10-05T13:11:15.284Z,30.19
2022-10-05T13:14:23.242Z,30.67
2022-10-05T13:17:09.628Z,31.21
2022-10-05T13:19:45.060Z,31.25
2022-10-05T13:23:06.660Z,31.80
2022-10-05T13:26:12.584Z,32.18
2022-10-05T13:29:43.942Z,32.65
2022-10-05T13:33:35.093Z,33.05
2022-10-05T13:36:18.677Z,33.17
2022-10-05T13:39:37.668Z,33.42
2022-10-05T13:42:21.875Z,33.50
2022-10-05T13:45:02.867Z,33.41
2022-10-05T13:47:45.408Z,33.15
2022-10-05T13:51:02.382Z,33.06
2022-10-05T13:54:11.787Z,32.45
2022-10-05T13:56:55.257Z,33.05
2022-10-05T13:59:47.123Z,33.25
2022-10-05T14:02:40.516Z,33.52
2022-10-05T14:05:22.904Z,33.27
2022-10-05T14:07:54.036Z,33.71
2022-10-05T14:10:43.013Z,33.39
2022-10-05T14:13:43.105Z,33.02
2022-10-05T14:16:26.322Z,33.84
2022-10-05T14:19:20.157Z,34.12
2022-10-05T14:22:02.202Z,34.43
2022-10-05T14:24:49.181Z,34.17
2022-10-05T14:27:28.871Z,34.34
2022-10-05T14:30:17.521Z,34.68
2022-10-05T14:33:08.446Z,34.60
2022-10-05T14:35:52.211Z,34.48
2022-10-05T14:38:36.270Z,34.32
2022-10-05T14:41:27.962Z,34.15
2022-10-05T14:44:25.682Z,34.22
2022-10-05T14:47:02.840Z,33.64
2022-10-05T14:49:36.343Z,33.34
2022-10-05T14:52:32.651Z,31.98
2022-10-05T14:55:37.451Z,32.26
2022-10-05T14:58:56.451Z,32.04
2022-10-05T15:01:31.588Z,30.11
2022-10-05T15:04:43.048Z,28.75
2022-10-05T15:07:26.293Z,27.70
2022-10-05T15:10:23.976Z,27.01
2022-10-05T15:13:17.511Z,26.60
2022-10-05T15:16:37.866Z,25.73
2022-10-05T15:19:39.395Z,25.25
2022-10-05T15:22:34.067Z,24.83
2022-10-05T15:25:42.429Z,24.62
2022-10-05T15:28:38.403Z,24.17
2022-10-05T15:31:46.100Z,23.83
2022-10-05T15:35:04.348Z,23.75
2022-10-05T15:40:54.818Z,23.09
2022-10-05T15:43:27.165Z,22.85
2022-10-05T15:46:20.177Z,22.72
2022-10-05T15:49:26.736Z,22.50
2022-10-05T15:52:45.570Z,22.24
2022-10-05T15:55:36.297Z,22.25
2022-10-05T15:59:00.394Z,22.03
2022-10-05T16:01:34.924Z,21.79
2022-10-05T16:04:50.067Z,21.62
2022-10-05T16:07:50.141Z,21.46
2022-10-05T16:10:27.260Z,21.24
2022-10-05T16:13:05.101Z,21.19
2022-10-05T16:15:59.452Z,21.05
2022-10-05T16:18:51.199Z,20.86
2022-10-05T16:21:54.575Z,20.56
2022-10-05T16:25:20.291Z,20.49
2022-10-05T16:28:05.662Z,20.41
2022-10-05T16:31:19.466Z,20.30
2022-10-05T16:34:17.239Z,20.11
2022-10-05T16:36:54.007Z,19.92
2022-10-05T16:39:39.822Z,20.01
2022-10-05T16:42:13.286Z,19.85
2022-10-05T16:44:57.280Z,19.69
2022-10-05T16:48:10.577Z,19.69
2022-10-05T16:51:17.565Z,19.47
2022-10-05T16:54:19.033Z,19.35
2022-10-05T16:56:59.478Z,19.33
2022-10-05T17:00:16.681Z,19.18
2022-10-05T17:03:32.914Z,18.96
2022-10-05T17:06:41.776Z,18.93
2022-10-05T17:10:15.295Z,18.70
2022-10-05T17:13:44.018Z,18.60
2022-10-05T17:17:02.561Z,18.61
2022-10-05T17:20:07.666Z,18.51
2022-10-05T17:23:13.906Z,18.38
2022-10-05T17:25:56.732Z,18.24
2022-10-05T17:29:03.322Z,18.19
2022-10-05T17:31:33.014Z,18.16
2022-10-05T17:34:12.263Z,18.18
2022-10-05T17:36:57.342Z,18.21
2022-10-05T17:39:52.267Z,18.08
2022-10-05T17:42:36.384Z,17.88
2022-10-05T17:45:13.655Z,17.82
2022-10-05T17:48:07.909Z,17.84
2022-10-05T17:51:07.312Z,17.71
2022-10-05T17:54:07.027Z,17.66
2022-10-05T17:56:47.971Z,17.48
2022-10-05T17:59:52.299Z,17.18
2022-10-05T18:02:22.996Z,17.33
2022-10-05T18:05:04.711Z,17.23
2022-10-05T18:07:35.614Z,17.05
2022-10-05T18:10:17.093Z,16.90
2022-10-05T18:12:48.664Z,16.90
2022-10-05T18:15:48.972Z,16.84
2022-10-05T18:18:54.814Z,16.84
2022-10-05T18:21:32.296Z,16.76
2022-10-05T18:24:30.000Z,16.83
2022-10-05T18:27:32.805Z,16.79
2022-10-05T18:30:18.298Z,16.84
2022-10-05T18:33:50.729Z,16.88
2022-10-05T18:36:45.381Z,16.80
2022-10-05T18:40:01.794Z,16.80
2022-10-05T18:43:18.128Z,16.71
2022-10-05T18:49:49.577Z,16.63
2022-10-05T18:52:44.670Z,16.61
2022-10-05T18:55:19.857Z,16.61
2022-10-05T18:58:42.377Z,16.68
2022-10-05T19:01:49.741Z,16.54
2022-10-05T19:04:47.226Z,16.93
2022-10-05T19:07:44.380Z,16.48
2022-10-05T19:10:46.169Z,16.28
2022-10-05T19:13:38.016Z,16.08
2022-10-05T19:16:38.433Z,15.98
2022-10-05T19:19:12.360Z,16.19
2022-10-05T19:22:40.330Z,16.01
2022-10-05T19:25:31.709Z,15.81
2022-10-05T19:28:21.333Z,15.72
2022-10-05T19:31:38.019Z,15.44
2022-10-05T19:34:27.104Z,14.83
2022-10-05T19:37:10.001Z,14.72
2022-10-05T19:40:07.231Z,14.54
2022-10-05T19:43:06.260Z,14.76
2022-10-05T19:45:52.836Z,14.65
2022-10-05T19:48:28.516Z,14.64
2022-10-05T19:50:59.424Z,14.64
2022-10-05T19:53:36.336Z,14.56
2022-10-05T19:56:25.265Z,14.64
2022-10-05T19:58:57.400Z,14.63
2022-10-05T20:01:36.556Z,14.58
2022-10-05T20:04:06.084Z,14.58
2022-10-05T20:06:35.434Z,14.59
2022-10-05T20:09:21.015Z,14.48
2022-10-05T20:11:53.422Z,14.35
2022-10-05T20:14:30.974Z,14.37
2022-10-05T20:17:46.903Z,14.48
2022-10-05T20:20:39.343Z,14.39
2022-10-05T20:23:24.679Z,14.49
2022-10-05T20:26:12.035Z,14.71
2022-10-05T20:28:40.075Z,14.84
2022-10-05T20:31:08.645Z,14.69
2022-10-05T20:33:36.250Z,14.76
2022-10-05T20:36:04.211Z,14.70
2022-10-05T20:38:34.385Z,14.81
2022-10-05T20:41:03.724Z,14.79
2022-10-05T20:43:31.307Z,14.62
2022-10-05T20:45:58.761Z,14.78
2022-10-05T20:48:26.976Z,14.74
2022-10-05T20:50:54.901Z,14.79
2022-10-05T20:53:22.444Z,14.85
2022-10-05T20:55:50.048Z,14.91
2022-10-05T20:58:18.063Z,14.69
2022-10-05T21:01:20.943Z,14.46
2022-10-05T21:03:49.699Z,14.30
2022-10-05T21:06:18.366Z,14.23
2022-10-05T21:08:46.765Z,14.22
2022-10-05T21:11:15.016Z,14.25
2022-10-05T21:13:44.828Z,14.33
2022-10-05T21:16:14.264Z,14.51
2022-10-05T21:18:46.824Z,14.39
2022-10-05T21:21:18.163Z,14.33
2022-10-05T21:23:50.535Z,14.39
2022-10-05T21:26:17.978Z,14.41
2022-10-05T21:28:45.538Z,14.37
2022-10-05T21:31:15.165Z,14.31
2022-10-05T21:33:42.707Z,14.31
2022-10-05T21:36:10.405Z,14.29
2022-10-05T21:38:37.983Z,14.16
2022-10-05T21:41:05.712Z,14.10
2022-10-05T21:43:33.504Z,14.13
2022-10-05T21:46:01.665Z,14.10
2022-10-05T21:48:32.299Z,14.12
2022-10-05T21:51:00.946Z,14.16
2022-10-05T21:53:33.925Z,14.22
2022-10-05T21:56:06.072Z,14.26
2022-10-05T21:58:33.613Z,14.28
2022-10-05T22:01:01.238Z,14.36
2022-10-05T22:03:31.775Z,14.22
2022-10-05T22:05:59.321Z,14.27
2022-10-05T22:08:30.924Z,14.24
2022-10-05T22:11:00.824Z,14.14
2022-10-05T22:13:44.140Z,14.34
2022-10-05T22:16:12.217Z,14.25
2022-10-05T22:18:40.149Z,14.15
2022-10-05T22:21:12.123Z,14.13
2022-10-05T22:23:42.380Z,14.10
2022-10-05T22:26:14.081Z,14.02
2022-10-05T22:28:42.725Z,14.04
2022-10-05T22:31:12.531Z,13.98
2022-10-05T22:33:43.098Z,14.05
2022-10-05T22:36:10.797Z,14.12
2022-10-05T22:38:38.443Z,13.82
2022-10-05T22:41:11.407Z,13.76
2022-10-05T22:43:39.676Z,13.69
2022-10-05T22:46:14.301Z,13.77
2022-10-05T22:48:42.099Z,13.76
2022-10-05T22:51:10.343Z,13.69
2022-10-05T22:53:38.139Z,13.68
2022-10-05T22:56:11.138Z,13.40
2022-10-05T22:58:39.697Z,13.31
2022-10-05T23:01:11.190Z,13.21
2022-10-05T23:03:39.236Z,13.17
2022-10-05T23:06:10.903Z,13.24
2022-10-05T23:08:39.588Z,13.12
2022-10-05T23:11:17.075Z,13.08
2022-10-05T23:13:45.185Z,13.13
2022-10-05T23:16:19.151Z,13.17
2022-10-05T23:18:50.475Z,13.13
2022-10-05T23:21:19.906Z,13.19
2022-10-05T23:23:51.034Z,13.13
2022-10-05T23:26:22.295Z,13.07
2022-10-05T23:28:50.349Z,13.03
2022-10-05T23:31:22.760Z,13.11
2022-10-05T23:33:51.393Z,13.11
2022-10-05T23:36:22.481Z,13.09
2022-10-05T23:38:50.962Z,13.07
2022-10-05T23:41:22.198Z,12.97
2022-10-05T23:43:50.053Z,13.02
2022-10-05T23:46:18.169Z,12.92
2022-10-05T23:48:45.828Z,12.92
2022-10-05T23:51:15.849Z,13.00
2022-10-05T23:53:43.757Z,12.97
2022-10-05T23:56:11.493Z,12.92
2022-10-05T23:58:39.203Z,12.85
